sensor_id;sensor_type;location;lat;lon;timestamp;P1;durP1;ratioP1;P2;durP2;ratioP2
64052;SDS011;50299;49.524;8.536;2022-07-17T00:02:08;4.10;;;2.53;;
64052;SDS011;50299;49.524;8.536;2022-07-17T00:04:34;3.60;;;2.78;;
64052;SDS011;50299;49.524;8.536;2022-07-17T00:07:00;2.72;;;2.40;;
64052;SDS011;50299;49.524;8.536;2022-07-17T00:09:27;2.50;;;2.30;;
64052;SDS011;50299;49.524;8.536;2022-07-17T00:11:53;3.00;;;2.50;;
64052;SDS011;50299;49.524;8.536;2022-07-17T00:14:20;2.80;;;2.28;;
64052;SDS011;50299;49.524;8.536;2022-07-17T00:16:46;3.25;;;2.30;;
64052;SDS011;50299;49.524;8.536;2022-07-17T00:19:13;3.40;;;2.10;;
64052;SDS011;50299;49.524;8.536;2022-07-17T00:21:39;4.80;;;2.65;;
64052;SDS011;50299;49.524;8.536;2022-07-17T00:24:06;3.17;;;2.40;;
64052;SDS011;50299;49.524;8.536;2022-07-17T00:26:32;4.28;;;2.50;;
64052;SDS011;50299;49.524;8.536;2022-07-17T00:29:00;5.13;;;2.10;;
64052;SDS011;50299;49.524;8.536;2022-07-17T00:31:29;2.67;;;2.47;;
64052;SDS011;50299;49.524;8.536;2022-07-17T00:33:56;3.95;;;3.20;;
64052;SDS011;50299;49.524;8.536;2022-07-17T00:36:22;2.88;;;2.67;;
64052;SDS011;50299;49.524;8.536;2022-07-17T00:38:49;2.38;;;2.17;;
64052;SDS011;50299;49.524;8.536;2022-07-17T00:41:15;6.53;;;2.60;;
64052;SDS011;50299;49.524;8.536;2022-07-17T00:43:41;2.85;;;2.60;;
64052;SDS011;50299;49.524;8.536;2022-07-17T00:46:08;2.97;;;2.67;;
64052;SDS011;50299;49.524;8.536;2022-07-17T00:48:34;3.83;;;2.58;;
64052;SDS011;50299;49.524;8.536;2022-07-17T00:51:01;2.78;;;2.53;;
64052;SDS011;50299;49.524;8.536;2022-07-17T00:53:28;2.92;;;2.72;;
64052;SDS011;50299;49.524;8.536;2022-07-17T00:56:00;3.15;;;2.55;;
64052;SDS011;50299;49.524;8.536;2022-07-17T00:58:28;4.03;;;2.42;;
64052;SDS011;50299;49.524;8.536;2022-07-17T01:00:56;3.08;;;2.72;;
64052;SDS011;50299;49.524;8.536;2022-07-17T01:03:24;3.63;;;3.17;;
64052;SDS011;50299;49.524;8.536;2022-07-17T01:05:51;5.65;;;2.72;;
64052;SDS011;50299;49.524;8.536;2022-07-17T01:08:18;5.03;;;3.25;;
64052;SDS011;50299;49.524;8.536;2022-07-17T01:10:45;3.47;;;2.67;;
64052;SDS011;50299;49.524;8.536;2022-07-17T01:13:13;2.63;;;2.45;;
64052;SDS011;50299;49.524;8.536;2022-07-17T01:15:40;3.28;;;2.92;;
64052;SDS011;50299;49.524;8.536;2022-07-17T01:18:07;3.70;;;2.70;;
64052;SDS011;50299;49.524;8.536;2022-07-17T01:20:38;3.60;;;2.92;;
64052;SDS011;50299;49.524;8.536;2022-07-17T01:23:06;3.90;;;3.03;;
64052;SDS011;50299;49.524;8.536;2022-07-17T01:25:33;3.22;;;2.92;;
64052;SDS011;50299;49.524;8.536;2022-07-17T01:28:00;3.90;;;3.60;;
64052;SDS011;50299;49.524;8.536;2022-07-17T01:30:27;6.13;;;2.95;;
64052;SDS011;50299;49.524;8.536;2022-07-17T01:32:54;3.88;;;3.17;;
64052;SDS011;50299;49.524;8.536;2022-07-17T01:35:20;3.35;;;3.05;;
64052;SDS011;50299;49.524;8.536;2022-07-17T01:37:47;4.20;;;3.75;;
64052;SDS011;50299;49.524;8.536;2022-07-17T01:40:15;4.05;;;3.60;;
64052;SDS011;50299;49.524;8.536;2022-07-17T01:42:44;3.88;;;3.38;;
64052;SDS011;50299;49.524;8.536;2022-07-17T01:45:13;4.07;;;3.25;;
64052;SDS011;50299;49.524;8.536;2022-07-17T01:47:41;3.92;;;3.28;;
64052;SDS011;50299;49.524;8.536;2022-07-17T01:50:10;4.30;;;3.90;;
64052;SDS011;50299;49.524;8.536;2022-07-17T01:52:38;5.18;;;4.57;;
64052;SDS011;50299;49.524;8.536;2022-07-17T01:55:06;3.70;;;3.40;;
64052;SDS011;50299;49.524;8.536;2022-07-17T01:57:34;4.45;;;3.72;;
64052;SDS011;50299;49.524;8.536;2022-07-17T02:02:58;3.65;;;3.45;;
64052;SDS011;50299;49.524;8.536;2022-07-17T02:05:25;6.80;;;3.63;;
64052;SDS011;50299;49.524;8.536;2022-07-17T02:07:52;3.45;;;3.15;;
64052;SDS011;50299;49.524;8.536;2022-07-17T02:10:18;4.93;;;4.43;;
64052;SDS011;50299;49.524;8.536;2022-07-17T02:12:45;4.40;;;4.00;;
64052;SDS011;50299;49.524;8.536;2022-07-17T02:15:12;3.70;;;3.50;;
64052;SDS011;50299;49.524;8.536;2022-07-17T02:17:39;3.97;;;3.58;;
64052;SDS011;50299;49.524;8.536;2022-07-17T02:20:07;5.15;;;3.50;;
64052;SDS011;50299;49.524;8.536;2022-07-17T02:22:35;5.03;;;3.38;;
64052;SDS011;50299;49.524;8.536;2022-07-17T02:27:31;4.13;;;3.47;;
64052;SDS011;50299;49.524;8.536;2022-07-17T02:30:01;3.70;;;3.40;;
64052;SDS011;50299;49.524;8.536;2022-07-17T02:32:29;3.80;;;3.45;;
64052;SDS011;50299;49.524;8.536;2022-07-17T02:34:56;4.90;;;3.78;;
64052;SDS011;50299;49.524;8.536;2022-07-17T02:37:23;4.32;;;3.92;;
64052;SDS011;50299;49.524;8.536;2022-07-17T02:39:49;4.15;;;3.65;;
64052;SDS011;50299;49.524;8.536;2022-07-17T02:44:52;3.83;;;3.33;;
64052;SDS011;50299;49.524;8.536;2022-07-17T02:47:23;3.45;;;3.17;;
64052;SDS011;50299;49.524;8.536;2022-07-17T02:49:54;3.50;;;3.03;;
64052;SDS011;50299;49.524;8.536;2022-07-17T02:52:21;5.22;;;3.40;;
64052;SDS011;50299;49.524;8.536;2022-07-17T02:54:48;3.65;;;3.35;;
64052;SDS011;50299;49.524;8.536;2022-07-17T02:57:15;5.53;;;3.88;;
64052;SDS011;50299;49.524;8.536;2022-07-17T02:59:42;4.88;;;3.20;;
64052;SDS011;50299;49.524;8.536;2022-07-17T03:02:08;3.42;;;3.13;;
64052;SDS011;50299;49.524;8.536;2022-07-17T03:04:36;3.40;;;2.85;;
64052;SDS011;50299;49.524;8.536;2022-07-17T03:07:02;3.42;;;2.72;;
64052;SDS011;50299;49.524;8.536;2022-07-17T03:09:29;4.55;;;3.13;;
64052;SDS011;50299;49.524;8.536;2022-07-17T03:11:55;4.25;;;2.63;;
64052;SDS011;50299;49.524;8.536;2022-07-17T03:14:22;3.90;;;3.30;;
64052;SDS011;50299;49.524;8.536;2022-07-17T03:16:48;5.20;;;3.28;;
64052;SDS011;50299;49.524;8.536;2022-07-17T03:19:15;5.95;;;2.85;;
64052;SDS011;50299;49.524;8.536;2022-07-17T03:21:41;3.53;;;2.97;;
64052;SDS011;50299;49.524;8.536;2022-07-17T03:24:07;4.15;;;2.92;;
64052;SDS011;50299;49.524;8.536;2022-07-17T03:26:34;4.07;;;3.33;;
64052;SDS011;50299;49.524;8.536;2022-07-17T03:29:00;4.30;;;3.00;;
64052;SDS011;50299;49.524;8.536;2022-07-17T03:31:27;8.00;;;3.45;;
64052;SDS011;50299;49.524;8.536;2022-07-17T03:33:54;3.78;;;2.72;;
64052;SDS011;50299;49.524;8.536;2022-07-17T03:36:20;3.55;;;3.05;;
64052;SDS011;50299;49.524;8.536;2022-07-17T03:38:46;2.97;;;2.65;;
64052;SDS011;50299;49.524;8.536;2022-07-17T03:41:13;4.93;;;3.55;;
64052;SDS011;50299;49.524;8.536;2022-07-17T03:43:39;2.95;;;2.67;;
64052;SDS011;50299;49.524;8.536;2022-07-17T03:46:06;3.40;;;2.78;;
64052;SDS011;50299;49.524;8.536;2022-07-17T03:48:32;3.60;;;3.17;;
64052;SDS011;50299;49.524;8.536;2022-07-17T03:51:00;3.80;;;2.63;;
64052;SDS011;50299;49.524;8.536;2022-07-17T03:53:27;2.78;;;2.45;;
64052;SDS011;50299;49.524;8.536;2022-07-17T03:55:53;2.95;;;2.67;;
64052;SDS011;50299;49.524;8.536;2022-07-17T03:58:20;2.92;;;2.58;;
64052;SDS011;50299;49.524;8.536;2022-07-17T04:00:46;3.15;;;2.75;;
64052;SDS011;50299;49.524;8.536;2022-07-17T04:03:12;3.03;;;2.60;;
64052;SDS011;50299;49.524;8.536;2022-07-17T04:05:39;3.35;;;2.83;;
64052;SDS011;50299;49.524;8.536;2022-07-17T04:08:05;3.38;;;2.78;;
64052;SDS011;50299;49.524;8.536;2022-07-17T04:10:32;3.17;;;2.85;;
64052;SDS011;50299;49.524;8.536;2022-07-17T04:12:58;3.95;;;2.72;;
64052;SDS011;50299;49.524;8.536;2022-07-17T04:15:24;4.25;;;2.67;;
64052;SDS011;50299;49.524;8.536;2022-07-17T04:18:09;3.53;;;2.63;;
64052;SDS011;50299;49.524;8.536;2022-07-17T04:20:36;5.20;;;2.63;;
64052;SDS011;50299;49.524;8.536;2022-07-17T04:23:02;4.35;;;2.70;;
64052;SDS011;50299;49.524;8.536;2022-07-17T04:25:31;3.88;;;2.53;;
64052;SDS011;50299;49.524;8.536;2022-07-17T04:27:57;3.95;;;2.33;;
64052;SDS011;50299;49.524;8.536;2022-07-17T04:30:24;4.13;;;2.35;;
64052;SDS011;50299;49.524;8.536;2022-07-17T04:32:50;4.65;;;2.92;;
64052;SDS011;50299;49.524;8.536;2022-07-17T04:35:17;4.75;;;2.72;;
64052;SDS011;50299;49.524;8.536;2022-07-17T04:37:44;3.47;;;2.30;;
64052;SDS011;50299;49.524;8.536;2022-07-17T04:40:10;3.10;;;2.53;;
64052;SDS011;50299;49.524;8.536;2022-07-17T04:42:37;3.67;;;2.28;;
64052;SDS011;50299;49.524;8.536;2022-07-17T04:45:04;3.50;;;2.45;;
64052;SDS011;50299;49.524;8.536;2022-07-17T04:47:33;6.13;;;2.55;;
64052;SDS011;50299;49.524;8.536;2022-07-17T04:50:00;4.13;;;2.35;;
64052;SDS011;50299;49.524;8.536;2022-07-17T04:52:27;4.50;;;1.75;;
64052;SDS011;50299;49.524;8.536;2022-07-17T04:54:53;3.42;;;2.35;;
64052;SDS011;50299;49.524;8.536;2022-07-17T04:57:20;3.92;;;2.30;;
64052;SDS011;50299;49.524;8.536;2022-07-17T04:59:46;2.00;;;1.90;;
64052;SDS011;50299;49.524;8.536;2022-07-17T05:02:13;2.25;;;2.03;;
64052;SDS011;50299;49.524;8.536;2022-07-17T05:04:39;3.20;;;1.90;;
64052;SDS011;50299;49.524;8.536;2022-07-17T05:07:05;3.13;;;2.10;;
64052;SDS011;50299;49.524;8.536;2022-07-17T05:09:32;2.83;;;1.90;;
64052;SDS011;50299;49.524;8.536;2022-07-17T05:11:58;2.47;;;1.67;;
64052;SDS011;50299;49.524;8.536;2022-07-17T05:14:25;3.17;;;1.77;;
64052;SDS011;50299;49.524;8.536;2022-07-17T05:16:51;3.60;;;1.88;;
64052;SDS011;50299;49.524;8.536;2022-07-17T05:19:18;1.85;;;1.67;;
64052;SDS011;50299;49.524;8.536;2022-07-17T05:21:44;5.45;;;1.83;;
64052;SDS011;50299;49.524;8.536;2022-07-17T05:24:11;1.98;;;1.65;;
64052;SDS011;50299;49.524;8.536;2022-07-17T05:26:37;3.42;;;1.70;;
64052;SDS011;50299;49.524;8.536;2022-07-17T05:29:03;2.45;;;1.63;;
64052;SDS011;50299;49.524;8.536;2022-07-17T05:31:30;4.43;;;1.83;;
64052;SDS011;50299;49.524;8.536;2022-07-17T05:33:57;4.20;;;1.70;;
64052;SDS011;50299;49.524;8.536;2022-07-17T05:36:23;2.33;;;1.60;;
64052;SDS011;50299;49.524;8.536;2022-07-17T05:38:50;4.80;;;1.75;;
64052;SDS011;50299;49.524;8.536;2022-07-17T05:41:16;3.65;;;1.60;;
64052;SDS011;50299;49.524;8.536;2022-07-17T05:43:42;5.05;;;1.75;;
64052;SDS011;50299;49.524;8.536;2022-07-17T05:46:09;5.80;;;1.63;;
64052;SDS011;50299;49.524;8.536;2022-07-17T05:48:36;2.30;;;1.55;;
64052;SDS011;50299;49.524;8.536;2022-07-17T05:51:02;4.50;;;1.67;;
64052;SDS011;50299;49.524;8.536;2022-07-17T05:53:37;1.77;;;1.40;;
64052;SDS011;50299;49.524;8.536;2022-07-17T05:56:04;1.80;;;1.27;;
64052;SDS011;50299;49.524;8.536;2022-07-17T05:58:30;3.28;;;1.50;;
64052;SDS011;50299;49.524;8.536;2022-07-17T06:00:57;3.45;;;1.35;;
64052;SDS011;50299;49.524;8.536;2022-07-17T06:03:23;2.70;;;1.60;;
64052;SDS011;50299;49.524;8.536;2022-07-17T06:05:50;3.55;;;1.45;;
64052;SDS011;50299;49.524;8.536;2022-07-17T06:08:16;3.50;;;1.77;;
64052;SDS011;50299;49.524;8.536;2022-07-17T06:10:43;2.15;;;1.30;;
64052;SDS011;50299;49.524;8.536;2022-07-17T06:13:09;3.47;;;1.58;;
64052;SDS011;50299;49.524;8.536;2022-07-17T06:15:35;3.45;;;1.58;;
64052;SDS011;50299;49.524;8.536;2022-07-17T06:18:02;2.33;;;1.42;;
64052;SDS011;50299;49.524;8.536;2022-07-17T06:20:30;2.80;;;1.70;;
64052;SDS011;50299;49.524;8.536;2022-07-17T06:22:57;3.00;;;1.45;;
64052;SDS011;50299;49.524;8.536;2022-07-17T06:25:24;2.13;;;1.35;;
64052;SDS011;50299;49.524;8.536;2022-07-17T06:27:50;3.88;;;1.40;;
64052;SDS011;50299;49.524;8.536;2022-07-17T06:30:17;3.53;;;1.45;;
64052;SDS011;50299;49.524;8.536;2022-07-17T06:32:44;3.08;;;1.45;;
64052;SDS011;50299;49.524;8.536;2022-07-17T06:35:11;5.13;;;1.42;;
64052;SDS011;50299;49.524;8.536;2022-07-17T06:37:37;1.85;;;1.30;;
64052;SDS011;50299;49.524;8.536;2022-07-17T06:40:04;2.78;;;1.17;;
64052;SDS011;50299;49.524;8.536;2022-07-17T06:42:32;2.65;;;1.27;;
64052;SDS011;50299;49.524;8.536;2022-07-17T06:44:58;2.22;;;1.50;;
64052;SDS011;50299;49.524;8.536;2022-07-17T06:47:25;2.72;;;1.27;;
64052;SDS011;50299;49.524;8.536;2022-07-17T06:49:51;3.30;;;1.52;;
64052;SDS011;50299;49.524;8.536;2022-07-17T06:52:17;1.92;;;1.33;;
64052;SDS011;50299;49.524;8.536;2022-07-17T06:54:44;1.70;;;1.17;;
64052;SDS011;50299;49.524;8.536;2022-07-17T06:57:10;3.95;;;1.27;;
64052;SDS011;50299;49.524;8.536;2022-07-17T06:59:37;2.85;;;1.20;;
64052;SDS011;50299;49.524;8.536;2022-07-17T07:02:03;4.68;;;1.40;;
64052;SDS011;50299;49.524;8.536;2022-07-17T07:04:30;2.22;;;1.30;;
64052;SDS011;50299;49.524;8.536;2022-07-17T07:06:57;2.55;;;1.40;;
64052;SDS011;50299;49.524;8.536;2022-07-17T07:09:23;2.92;;;1.20;;
64052;SDS011;50299;49.524;8.536;2022-07-17T07:11:50;3.97;;;1.60;;
64052;SDS011;50299;49.524;8.536;2022-07-17T07:14:16;1.90;;;1.17;;
64052;SDS011;50299;49.524;8.536;2022-07-17T07:16:43;2.08;;;1.00;;
64052;SDS011;50299;49.524;8.536;2022-07-17T07:19:09;2.42;;;1.13;;
64052;SDS011;50299;49.524;8.536;2022-07-17T07:21:36;3.10;;;1.10;;
64052;SDS011;50299;49.524;8.536;2022-07-17T07:24:02;1.85;;;1.20;;
64052;SDS011;50299;49.524;8.536;2022-07-17T07:26:29;1.45;;;1.05;;
64052;SDS011;50299;49.524;8.536;2022-07-17T07:28:56;2.63;;;1.10;;
64052;SDS011;50299;49.524;8.536;2022-07-17T07:31:22;1.27;;;1.05;;
64052;SDS011;50299;49.524;8.536;2022-07-17T07:33:49;2.80;;;1.10;;
64052;SDS011;50299;49.524;8.536;2022-07-17T07:36:15;2.85;;;1.20;;
64052;SDS011;50299;49.524;8.536;2022-07-17T07:38:41;2.45;;;1.55;;
64052;SDS011;50299;49.524;8.536;2022-07-17T07:41:08;2.67;;;1.10;;
64052;SDS011;50299;49.524;8.536;2022-07-17T07:43:34;3.05;;;1.05;;
64052;SDS011;50299;49.524;8.536;2022-07-17T07:46:02;1.65;;;1.08;;
64052;SDS011;50299;49.524;8.536;2022-07-17T07:48:29;1.60;;;1.23;;
64052;SDS011;50299;49.524;8.536;2022-07-17T07:50:56;2.67;;;1.10;;
64052;SDS011;50299;49.524;8.536;2022-07-17T07:53:23;2.42;;;1.20;;
64052;SDS011;50299;49.524;8.536;2022-07-17T07:55:49;3.22;;;1.10;;
64052;SDS011;50299;49.524;8.536;2022-07-17T07:58:16;3.25;;;1.08;;
64052;SDS011;50299;49.524;8.536;2022-07-17T08:00:43;2.40;;;1.30;;
64052;SDS011;50299;49.524;8.536;2022-07-17T08:03:11;6.50;;;1.50;;
64052;SDS011;50299;49.524;8.536;2022-07-17T08:05:38;4.30;;;1.10;;
64052;SDS011;50299;49.524;8.536;2022-07-17T08:08:05;3.20;;;1.05;;
64052;SDS011;50299;49.524;8.536;2022-07-17T08:10:31;2.50;;;1.10;;
64052;SDS011;50299;49.524;8.536;2022-07-17T08:12:58;3.70;;;1.48;;
64052;SDS011;50299;49.524;8.536;2022-07-17T08:15:24;2.20;;;1.00;;
64052;SDS011;50299;49.524;8.536;2022-07-17T08:17:51;2.90;;;0.98;;
64052;SDS011;50299;49.524;8.536;2022-07-17T08:20:19;2.50;;;1.17;;
64052;SDS011;50299;49.524;8.536;2022-07-17T08:22:47;3.28;;;1.02;;
64052;SDS011;50299;49.524;8.536;2022-07-17T08:25:32;2.22;;;1.35;;
64052;SDS011;50299;49.524;8.536;2022-07-17T08:28:00;1.30;;;1.13;;
64052;SDS011;50299;49.524;8.536;2022-07-17T08:30:27;3.47;;;1.38;;
64052;SDS011;50299;49.524;8.536;2022-07-17T08:32:53;2.28;;;1.35;;
64052;SDS011;50299;49.524;8.536;2022-07-17T08:35:20;12.63;;;1.50;;
64052;SDS011;50299;49.524;8.536;2022-07-17T08:37:48;2.15;;;1.00;;
64052;SDS011;50299;49.524;8.536;2022-07-17T08:40:17;4.50;;;1.20;;
64052;SDS011;50299;49.524;8.536;2022-07-17T08:42:45;1.98;;;1.17;;
64052;SDS011;50299;49.524;8.536;2022-07-17T08:45:12;2.50;;;1.20;;
64052;SDS011;50299;49.524;8.536;2022-07-17T08:47:39;2.05;;;1.00;;
64052;SDS011;50299;49.524;8.536;2022-07-17T08:50:08;2.38;;;1.27;;
64052;SDS011;50299;49.524;8.536;2022-07-17T08:52:40;2.45;;;1.10;;
64052;SDS011;50299;49.524;8.536;2022-07-17T08:55:09;3.08;;;1.33;;
64052;SDS011;50299;49.524;8.536;2022-07-17T08:57:39;2.03;;;1.08;;
64052;SDS011;50299;49.524;8.536;2022-07-17T09:00:12;1.52;;;1.13;;
64052;SDS011;50299;49.524;8.536;2022-07-17T09:02:55;3.92;;;1.08;;
64052;SDS011;50299;49.524;8.536;2022-07-17T09:05:34;2.97;;;1.10;;
64052;SDS011;50299;49.524;8.536;2022-07-17T09:08:06;2.25;;;1.20;;
64052;SDS011;50299;49.524;8.536;2022-07-17T09:10:38;3.00;;;1.35;;
64052;SDS011;50299;49.524;8.536;2022-07-17T09:13:17;3.45;;;1.25;;
64052;SDS011;50299;49.524;8.536;2022-07-17T09:15:45;3.25;;;1.17;;
64052;SDS011;50299;49.524;8.536;2022-07-17T09:20:55;1.98;;;1.27;;
64052;SDS011;50299;49.524;8.536;2022-07-17T09:23:24;1.95;;;1.10;;
64052;SDS011;50299;49.524;8.536;2022-07-17T09:25:54;1.27;;;1.00;;
64052;SDS011;50299;49.524;8.536;2022-07-17T09:28:21;1.35;;;1.25;;
64052;SDS011;50299;49.524;8.536;2022-07-17T09:30:49;2.28;;;1.30;;
64052;SDS011;50299;49.524;8.536;2022-07-17T09:33:22;2.17;;;1.17;;
64052;SDS011;50299;49.524;8.536;2022-07-17T09:35:51;1.23;;;1.02;;
64052;SDS011;50299;49.524;8.536;2022-07-17T09:38:34;1.85;;;1.15;;
64052;SDS011;50299;49.524;8.536;2022-07-17T09:41:11;1.77;;;1.17;;
64052;SDS011;50299;49.524;8.536;2022-07-17T09:43:45;2.60;;;1.20;;
64052;SDS011;50299;49.524;8.536;2022-07-17T09:46:20;1.42;;;1.20;;
64052;SDS011;50299;49.524;8.536;2022-07-17T09:48:54;1.38;;;1.10;;
64052;SDS011;50299;49.524;8.536;2022-07-17T09:56:19;2.85;;;1.20;;
64052;SDS011;50299;49.524;8.536;2022-07-17T09:59:03;2.75;;;1.30;;
64052;SDS011;50299;49.524;8.536;2022-07-17T10:01:31;2.72;;;1.27;;
64052;SDS011;50299;49.524;8.536;2022-07-17T10:04:01;2.85;;;1.38;;
64052;SDS011;50299;49.524;8.536;2022-07-17T10:06:28;1.77;;;1.08;;
64052;SDS011;50299;49.524;8.536;2022-07-17T10:08:55;1.60;;;0.90;;
64052;SDS011;50299;49.524;8.536;2022-07-17T10:11:23;1.38;;;1.10;;
64052;SDS011;50299;49.524;8.536;2022-07-17T10:13:52;2.88;;;1.10;;
64052;SDS011;50299;49.524;8.536;2022-07-17T10:16:25;1.35;;;0.98;;
64052;SDS011;50299;49.524;8.536;2022-07-17T10:18:58;1.40;;;1.30;;
64052;SDS011;50299;49.524;8.536;2022-07-17T10:21:29;1.58;;;1.20;;
64052;SDS011;50299;49.524;8.536;2022-07-17T10:26:33;4.47;;;1.40;;
64052;SDS011;50299;49.524;8.536;2022-07-17T10:29:02;2.13;;;1.00;;
64052;SDS011;50299;49.524;8.536;2022-07-17T10:31:33;3.78;;;1.20;;
64052;SDS011;50299;49.524;8.536;2022-07-17T10:34:01;2.03;;;1.25;;
64052;SDS011;50299;49.524;8.536;2022-07-17T10:36:34;1.77;;;1.40;;
64052;SDS011;50299;49.524;8.536;2022-07-17T10:39:10;2.85;;;1.10;;
64052;SDS011;50299;49.524;8.536;2022-07-17T10:41:54;1.85;;;1.25;;
64052;SDS011;50299;49.524;8.536;2022-07-17T10:44:24;2.38;;;1.17;;
64052;SDS011;50299;49.524;8.536;2022-07-17T10:46:54;3.13;;;1.33;;
64052;SDS011;50299;49.524;8.536;2022-07-17T10:49:22;1.65;;;0.98;;
64052;SDS011;50299;49.524;8.536;2022-07-17T10:51:50;1.73;;;1.20;;
64052;SDS011;50299;49.524;8.536;2022-07-17T10:54:17;3.63;;;1.40;;
64052;SDS011;50299;49.524;8.536;2022-07-17T10:56:45;2.17;;;1.52;;
64052;SDS011;50299;49.524;8.536;2022-07-17T10:59:12;1.27;;;1.17;;
64052;SDS011;50299;49.524;8.536;2022-07-17T11:01:39;1.92;;;1.27;;
64052;SDS011;50299;49.524;8.536;2022-07-17T11:04:06;2.38;;;1.40;;
64052;SDS011;50299;49.524;8.536;2022-07-17T11:06:33;1.77;;;1.33;;
64052;SDS011;50299;49.524;8.536;2022-07-17T11:11:37;1.33;;;1.08;;
64052;SDS011;50299;49.524;8.536;2022-07-17T11:14:17;1.60;;;1.13;;
64052;SDS011;50299;49.524;8.536;2022-07-17T11:16:49;2.20;;;1.40;;
64052;SDS011;50299;49.524;8.536;2022-07-17T11:19:25;1.45;;;1.35;;
64052;SDS011;50299;49.524;8.536;2022-07-17T11:21:54;1.75;;;1.17;;
64052;SDS011;50299;49.524;8.536;2022-07-17T11:24:23;2.45;;;1.38;;
64052;SDS011;50299;49.524;8.536;2022-07-17T11:26:52;1.45;;;1.20;;
64052;SDS011;50299;49.524;8.536;2022-07-17T11:29:18;3.05;;;1.50;;
64052;SDS011;50299;49.524;8.536;2022-07-17T11:31:45;1.65;;;1.30;;
64052;SDS011;50299;49.524;8.536;2022-07-17T11:34:11;2.08;;;1.30;;
64052;SDS011;50299;49.524;8.536;2022-07-17T11:36:40;1.40;;;1.20;;
64052;SDS011;50299;49.524;8.536;2022-07-17T11:41:42;2.30;;;1.23;;
64052;SDS011;50299;49.524;8.536;2022-07-17T11:44:12;3.17;;;1.48;;
64052;SDS011;50299;49.524;8.536;2022-07-17T11:46:40;2.17;;;1.15;;
64052;SDS011;50299;49.524;8.536;2022-07-17T11:49:09;2.28;;;1.30;;
64052;SDS011;50299;49.524;8.536;2022-07-17T11:51:40;1.45;;;1.35;;
64052;SDS011;50299;49.524;8.536;2022-07-17T11:54:13;1.65;;;1.40;;
64052;SDS011;50299;49.524;8.536;2022-07-17T11:56:41;2.63;;;1.10;;
64052;SDS011;50299;49.524;8.536;2022-07-17T11:59:09;1.30;;;1.02;;
64052;SDS011;50299;49.524;8.536;2022-07-17T12:01:43;1.15;;;1.08;;
64052;SDS011;50299;49.524;8.536;2022-07-17T12:04:13;3.22;;;1.80;;
64052;SDS011;50299;49.524;8.536;2022-07-17T12:06:43;2.45;;;1.40;;
64052;SDS011;50299;49.524;8.536;2022-07-17T12:09:10;1.27;;;1.13;;
64052;SDS011;50299;49.524;8.536;2022-07-17T12:11:47;2.35;;;1.27;;
64052;SDS011;50299;49.524;8.536;2022-07-17T12:14:15;1.83;;;1.15;;
64052;SDS011;50299;49.524;8.536;2022-07-17T12:16:42;2.22;;;1.20;;
64052;SDS011;50299;49.524;8.536;2022-07-17T12:19:14;2.30;;;1.33;;
64052;SDS011;50299;49.524;8.536;2022-07-17T12:22:01;1.90;;;1.15;;
64052;SDS011;50299;49.524;8.536;2022-07-17T12:26:56;1.75;;;1.02;;
64052;SDS011;50299;49.524;8.536;2022-07-17T12:29:25;2.05;;;1.50;;
64052;SDS011;50299;49.524;8.536;2022-07-17T12:34:30;4.75;;;1.27;;
64052;SDS011;50299;49.524;8.536;2022-07-17T12:36:57;2.83;;;1.40;;
64052;SDS011;50299;49.524;8.536;2022-07-17T12:39:23;1.90;;;1.20;;
64052;SDS011;50299;49.524;8.536;2022-07-17T12:41:50;1.88;;;1.27;;
64052;SDS011;50299;49.524;8.536;2022-07-17T12:44:17;2.33;;;1.25;;
64052;SDS011;50299;49.524;8.536;2022-07-17T12:46:43;1.65;;;1.33;;
64052;SDS011;50299;49.524;8.536;2022-07-17T12:49:10;1.48;;;1.23;;
64052;SDS011;50299;49.524;8.536;2022-07-17T12:51:37;1.30;;;1.20;;
64052;SDS011;50299;49.524;8.536;2022-07-17T12:54:03;1.58;;;1.00;;
64052;SDS011;50299;49.524;8.536;2022-07-17T12:56:30;2.05;;;1.55;;
64052;SDS011;50299;49.524;8.536;2022-07-17T12:58:56;1.88;;;1.20;;
64052;SDS011;50299;49.524;8.536;2022-07-17T13:01:27;1.45;;;1.08;;
64052;SDS011;50299;49.524;8.536;2022-07-17T13:03:54;1.67;;;1.33;;
64052;SDS011;50299;49.524;8.536;2022-07-17T13:06:22;1.30;;;1.00;;
64052;SDS011;50299;49.524;8.536;2022-07-17T13:08:48;1.15;;;1.00;;
64052;SDS011;50299;49.524;8.536;2022-07-17T13:11:15;4.55;;;1.80;;
64052;SDS011;50299;49.524;8.536;2022-07-17T13:13:41;2.50;;;1.30;;
64052;SDS011;50299;49.524;8.536;2022-07-17T13:16:10;1.65;;;1.08;;
64052;SDS011;50299;49.524;8.536;2022-07-17T13:18:38;2.38;;;1.20;;
64052;SDS011;50299;49.524;8.536;2022-07-17T13:21:05;2.50;;;1.40;;
64052;SDS011;50299;49.524;8.536;2022-07-17T13:23:32;3.03;;;1.42;;
64052;SDS011;50299;49.524;8.536;2022-07-17T13:26:00;3.53;;;1.33;;
64052;SDS011;50299;49.524;8.536;2022-07-17T13:28:28;6.43;;;1.73;;
64052;SDS011;50299;49.524;8.536;2022-07-17T13:30:55;1.20;;;1.10;;
64052;SDS011;50299;49.524;8.536;2022-07-17T13:33:23;3.42;;;1.35;;
64052;SDS011;50299;49.524;8.536;2022-07-17T13:35:52;2.08;;;1.20;;
64052;SDS011;50299;49.524;8.536;2022-07-17T13:38:20;3.53;;;1.27;;
64052;SDS011;50299;49.524;8.536;2022-07-17T13:40:47;2.80;;;1.15;;
64052;SDS011;50299;49.524;8.536;2022-07-17T13:43:13;1.75;;;1.38;;
64052;SDS011;50299;49.524;8.536;2022-07-17T13:45:40;4.05;;;1.40;;
64052;SDS011;50299;49.524;8.536;2022-07-17T13:48:06;2.22;;;1.23;;
64052;SDS011;50299;49.524;8.536;2022-07-17T13:50:33;1.90;;;1.17;;
64052;SDS011;50299;49.524;8.536;2022-07-17T13:53:00;3.03;;;1.48;;
64052;SDS011;50299;49.524;8.536;2022-07-17T13:55:27;2.40;;;1.20;;
64052;SDS011;50299;49.524;8.536;2022-07-17T13:58:08;1.83;;;1.13;;
64052;SDS011;50299;49.524;8.536;2022-07-17T14:00:35;1.48;;;1.13;;
64052;SDS011;50299;49.524;8.536;2022-07-17T14:03:01;2.83;;;1.33;;
64052;SDS011;50299;49.524;8.536;2022-07-17T14:05:28;1.67;;;1.52;;
64052;SDS011;50299;49.524;8.536;2022-07-17T14:07:54;2.90;;;1.48;;
64052;SDS011;50299;49.524;8.536;2022-07-17T14:10:21;2.28;;;1.20;;
64052;SDS011;50299;49.524;8.536;2022-07-17T14:12:47;1.52;;;1.17;;
64052;SDS011;50299;49.524;8.536;2022-07-17T14:15:14;1.75;;;0.98;;
64052;SDS011;50299;49.524;8.536;2022-07-17T14:17:40;1.92;;;1.45;;
64052;SDS011;50299;49.524;8.536;2022-07-17T14:20:07;1.63;;;1.48;;
64052;SDS011;50299;49.524;8.536;2022-07-17T14:22:34;1.83;;;1.73;;
64052;SDS011;50299;49.524;8.536;2022-07-17T14:25:00;3.13;;;1.40;;
64052;SDS011;50299;49.524;8.536;2022-07-17T14:27:27;1.83;;;1.15;;
64052;SDS011;50299;49.524;8.536;2022-07-17T14:29:53;5.18;;;1.23;;
64052;SDS011;50299;49.524;8.536;2022-07-17T14:32:20;1.67;;;1.33;;
64052;SDS011;50299;49.524;8.536;2022-07-17T14:34:46;3.47;;;1.30;;
64052;SDS011;50299;49.524;8.536;2022-07-17T14:37:12;1.20;;;1.10;;
64052;SDS011;50299;49.524;8.536;2022-07-17T14:39:39;1.65;;;1.13;;
64052;SDS011;50299;49.524;8.536;2022-07-17T14:42:05;2.22;;;1.10;;
64052;SDS011;50299;49.524;8.536;2022-07-17T14:44:33;2.08;;;1.35;;
64052;SDS011;50299;49.524;8.536;2022-07-17T14:47:01;2.05;;;1.30;;
64052;SDS011;50299;49.524;8.536;2022-07-17T14:49:29;11.05;;;2.83;;
64052;SDS011;50299;49.524;8.536;2022-07-17T14:51:55;1.83;;;1.20;;
64052;SDS011;50299;49.524;8.536;2022-07-17T14:54:21;2.03;;;1.48;;
64052;SDS011;50299;49.524;8.536;2022-07-17T14:56:48;2.42;;;1.40;;
64052;SDS011;50299;49.524;8.536;2022-07-17T14:59:15;2.20;;;1.20;;
64052;SDS011;50299;49.524;8.536;2022-07-17T15:01:41;2.35;;;1.23;;
64052;SDS011;50299;49.524;8.536;2022-07-17T15:04:08;1.50;;;1.15;;
64052;SDS011;50299;49.524;8.536;2022-07-17T15:06:37;1.65;;;1.50;;
64052;SDS011;50299;49.524;8.536;2022-07-17T15:09:04;1.20;;;1.10;;
64052;SDS011;50299;49.524;8.536;2022-07-17T15:11:33;1.85;;;1.30;;
64052;SDS011;50299;49.524;8.536;2022-07-17T15:13:59;2.30;;;1.27;;
64052;SDS011;50299;49.524;8.536;2022-07-17T15:16:26;2.60;;;1.60;;
64052;SDS011;50299;49.524;8.536;2022-07-17T15:18:53;2.15;;;1.15;;
64052;SDS011;50299;49.524;8.536;2022-07-17T15:21:19;15.02;;;1.80;;